sensor_id;sensor_type;location;lat;lon;timestamp;P1;durP1;ratioP1;P2;durP2;ratioP2
10154;SDS011;5118;48.570;7.916;2023-02-03T00:00:09;5.17;;;2.87;;
10154;SDS011;5118;48.570;7.916;2023-02-03T00:02:38;4.20;;;3.10;;
10154;SDS011;5118;48.570;7.916;2023-02-03T00:05:06;5.20;;;3.20;;
10154;SDS011;5118;48.570;7.916;2023-02-03T00:07:35;3.87;;;2.87;;
10154;SDS011;5118;48.570;7.916;2023-02-03T00:10:05;5.00;;;3.03;;
10154;SDS011;5118;48.570;7.916;2023-02-03T00:12:36;3.73;;;3.00;;
10154;SDS011;5118;48.570;7.916;2023-02-03T00:15:04;4.33;;;3.00;;
10154;SDS011;5118;48.570;7.916;2023-02-03T00:17:33;3.97;;;3.00;;
10154;SDS011;5118;48.570;7.916;2023-02-03T00:20:01;3.63;;;3.07;;
10154;SDS011;5118;48.570;7.916;2023-02-03T00:22:29;6.00;;;3.20;;
10154;SDS011;5118;48.570;7.916;2023-02-03T00:24:58;4.97;;;3.27;;
10154;SDS011;5118;48.570;7.916;2023-02-03T00:27:26;4.30;;;3.00;;
10154;SDS011;5118;48.570;7.916;2023-02-03T00:29:55;5.70;;;2.83;;
10154;SDS011;5118;48.570;7.916;2023-02-03T00:32:24;4.97;;;2.90;;
10154;SDS011;5118;48.570;7.916;2023-02-03T00:34:52;3.60;;;2.67;;
10154;SDS011;5118;48.570;7.916;2023-02-03T00:37:20;4.03;;;3.20;;
10154;SDS011;5118;48.570;7.916;2023-02-03T00:39:49;3.30;;;2.80;;
10154;SDS011;5118;48.570;7.916;2023-02-03T00:42:17;3.83;;;2.97;;
10154;SDS011;5118;48.570;7.916;2023-02-03T00:44:45;3.43;;;2.90;;
10154;SDS011;5118;48.570;7.916;2023-02-03T00:47:15;4.67;;;3.07;;
10154;SDS011;5118;48.570;7.916;2023-02-03T00:49:43;4.10;;;3.07;;
10154;SDS011;5118;48.570;7.916;2023-02-03T00:52:12;4.93;;;3.10;;
10154;SDS011;5118;48.570;7.916;2023-02-03T00:54:40;4.00;;;3.30;;
10154;SDS011;5118;48.570;7.916;2023-02-03T00:57:08;3.83;;;3.07;;
10154;SDS011;5118;48.570;7.916;2023-02-03T00:59:37;4.53;;;3.17;;
10154;SDS011;5118;48.570;7.916;2023-02-03T01:02:06;3.60;;;2.90;;
10154;SDS011;5118;48.570;7.916;2023-02-03T01:04:35;4.20;;;3.17;;
10154;SDS011;5118;48.570;7.916;2023-02-03T01:07:04;3.63;;;3.13;;
10154;SDS011;5118;48.570;7.916;2023-02-03T01:09:34;4.93;;;3.20;;
10154;SDS011;5118;48.570;7.916;2023-02-03T01:12:03;3.53;;;2.93;;
10154;SDS011;5118;48.570;7.916;2023-02-03T01:14:32;4.60;;;3.27;;
10154;SDS011;5118;48.570;7.916;2023-02-03T01:17:02;4.40;;;3.33;;
10154;SDS011;5118;48.570;7.916;2023-02-03T01:19:31;4.70;;;2.93;;
10154;SDS011;5118;48.570;7.916;2023-02-03T01:22:01;4.63;;;3.10;;
10154;SDS011;5118;48.570;7.916;2023-02-03T01:24:29;5.87;;;2.97;;
10154;SDS011;5118;48.570;7.916;2023-02-03T01:26:58;3.67;;;2.77;;
10154;SDS011;5118;48.570;7.916;2023-02-03T01:29:26;3.13;;;2.63;;
10154;SDS011;5118;48.570;7.916;2023-02-03T01:31:55;3.40;;;2.23;;
10154;SDS011;5118;48.570;7.916;2023-02-03T01:34:23;3.13;;;2.20;;
10154;SDS011;5118;48.570;7.916;2023-02-03T01:36:52;3.60;;;2.30;;
10154;SDS011;5118;48.570;7.916;2023-02-03T01:39:21;3.47;;;2.20;;
10154;SDS011;5118;48.570;7.916;2023-02-03T01:41:53;2.90;;;2.20;;
10154;SDS011;5118;48.570;7.916;2023-02-03T01:44:38;3.70;;;2.27;;
10154;SDS011;5118;48.570;7.916;2023-02-03T01:47:11;3.33;;;2.07;;
10154;SDS011;5118;48.570;7.916;2023-02-03T01:49:58;3.77;;;2.40;;
10154;SDS011;5118;48.570;7.916;2023-02-03T01:52:33;2.33;;;2.00;;
10154;SDS011;5118;48.570;7.916;2023-02-03T01:55:04;3.07;;;2.10;;
10154;SDS011;5118;48.570;7.916;2023-02-03T01:57:37;2.73;;;2.10;;
10154;SDS011;5118;48.570;7.916;2023-02-03T02:00:09;3.80;;;2.10;;
10154;SDS011;5118;48.570;7.916;2023-02-03T02:02:38;2.80;;;1.90;;
10154;SDS011;5118;48.570;7.916;2023-02-03T02:05:11;3.97;;;2.17;;
10154;SDS011;5118;48.570;7.916;2023-02-03T02:07:44;3.10;;;2.50;;
10154;SDS011;5118;48.570;7.916;2023-02-03T02:10:15;4.13;;;2.67;;
10154;SDS011;5118;48.570;7.916;2023-02-03T02:12:45;4.63;;;2.60;;
10154;SDS011;5118;48.570;7.916;2023-02-03T02:15:14;2.83;;;2.30;;
10154;SDS011;5118;48.570;7.916;2023-02-03T02:17:46;3.53;;;2.50;;
10154;SDS011;5118;48.570;7.916;2023-02-03T02:20:37;4.40;;;2.70;;
10154;SDS011;5118;48.570;7.916;2023-02-03T02:32:33;4.43;;;2.20;;
10154;SDS011;5118;48.570;7.916;2023-02-03T02:35:18;4.07;;;2.20;;
10154;SDS011;5118;48.570;7.916;2023-02-03T02:37:54;2.67;;;2.13;;
10154;SDS011;5118;48.570;7.916;2023-02-03T02:40:32;2.90;;;2.27;;
10154;SDS011;5118;48.570;7.916;2023-02-03T02:43:09;3.13;;;2.20;;
10154;SDS011;5118;48.570;7.916;2023-02-03T02:45:43;2.60;;;2.10;;
10154;SDS011;5118;48.570;7.916;2023-02-03T02:48:18;3.33;;;2.20;;
10154;SDS011;5118;48.570;7.916;2023-02-03T02:50:51;4.30;;;2.47;;
10154;SDS011;5118;48.570;7.916;2023-02-03T02:53:25;4.07;;;2.40;;
10154;SDS011;5118;48.570;7.916;2023-02-03T02:55:57;7.23;;;2.83;;
10154;SDS011;5118;48.570;7.916;2023-02-03T02:58:27;4.80;;;2.53;;
10154;SDS011;5118;48.570;7.916;2023-02-03T03:00:58;5.87;;;2.40;;
10154;SDS011;5118;48.570;7.916;2023-02-03T03:03:28;3.37;;;2.20;;
10154;SDS011;5118;48.570;7.916;2023-02-03T03:05:57;6.53;;;2.30;;
10154;SDS011;5118;48.570;7.916;2023-02-03T03:08:34;2.90;;;2.20;;
10154;SDS011;5118;48.570;7.916;2023-02-03T03:11:09;3.87;;;2.30;;
10154;SDS011;5118;48.570;7.916;2023-02-03T03:13:38;5.33;;;2.60;;
10154;SDS011;5118;48.570;7.916;2023-02-03T03:16:10;4.10;;;2.50;;
10154;SDS011;5118;48.570;7.916;2023-02-03T03:18:42;3.67;;;2.30;;
10154;SDS011;5118;48.570;7.916;2023-02-03T03:21:15;4.03;;;2.30;;
10154;SDS011;5118;48.570;7.916;2023-02-03T03:23:49;4.47;;;2.40;;
10154;SDS011;5118;48.570;7.916;2023-02-03T03:26:20;4.33;;;2.30;;
10154;SDS011;5118;48.570;7.916;2023-02-03T03:28:56;3.17;;;2.13;;
10154;SDS011;5118;48.570;7.916;2023-02-03T03:31:30;4.30;;;2.30;;
10154;SDS011;5118;48.570;7.916;2023-02-03T03:34:00;3.20;;;1.93;;
10154;SDS011;5118;48.570;7.916;2023-02-03T03:36:29;2.83;;;2.20;;
10154;SDS011;5118;48.570;7.916;2023-02-03T03:39:01;2.97;;;2.03;;
10154;SDS011;5118;48.570;7.916;2023-02-03T03:41:37;3.17;;;2.10;;
10154;SDS011;5118;48.570;7.916;2023-02-03T03:44:14;3.27;;;2.10;;
10154;SDS011;5118;48.570;7.916;2023-02-03T03:46:47;4.10;;;2.10;;
10154;SDS011;5118;48.570;7.916;2023-02-03T03:49:21;3.77;;;2.00;;
10154;SDS011;5118;48.570;7.916;2023-02-03T03:51:52;4.60;;;2.00;;
10154;SDS011;5118;48.570;7.916;2023-02-03T03:54:24;4.00;;;2.00;;
10154;SDS011;5118;48.570;7.916;2023-02-03T03:56:56;3.13;;;1.90;;
10154;SDS011;5118;48.570;7.916;2023-02-03T03:59:28;3.13;;;1.80;;
10154;SDS011;5118;48.570;7.916;2023-02-03T04:01:59;3.27;;;2.00;;
10154;SDS011;5118;48.570;7.916;2023-02-03T04:04:33;3.70;;;1.87;;
10154;SDS011;5118;48.570;7.916;2023-02-03T04:07:04;5.20;;;1.80;;
10154;SDS011;5118;48.570;7.916;2023-02-03T04:09:32;5.53;;;2.27;;
10154;SDS011;5118;48.570;7.916;2023-02-03T04:12:02;4.70;;;1.90;;
10154;SDS011;5118;48.570;7.916;2023-02-03T04:14:32;3.93;;;1.83;;
10154;SDS011;5118;48.570;7.916;2023-02-03T04:17:04;6.40;;;1.70;;
10154;SDS011;5118;48.570;7.916;2023-02-03T04:19:33;3.73;;;1.73;;
10154;SDS011;5118;48.570;7.916;2023-02-03T04:22:02;2.70;;;2.10;;
10154;SDS011;5118;48.570;7.916;2023-02-03T04:24:30;3.47;;;2.00;;
10154;SDS011;5118;48.570;7.916;2023-02-03T04:26:58;2.73;;;2.00;;
10154;SDS011;5118;48.570;7.916;2023-02-03T04:29:29;4.67;;;2.27;;
10154;SDS011;5118;48.570;7.916;2023-02-03T04:31:57;2.63;;;2.13;;
10154;SDS011;5118;48.570;7.916;2023-02-03T04:34:25;4.67;;;2.37;;
10154;SDS011;5118;48.570;7.916;2023-02-03T04:36:55;5.60;;;2.90;;
10154;SDS011;5118;48.570;7.916;2023-02-03T04:39:23;5.00;;;3.53;;
10154;SDS011;5118;48.570;7.916;2023-02-03T04:41:51;5.07;;;2.70;;
10154;SDS011;5118;48.570;7.916;2023-02-03T04:44:19;3.70;;;2.50;;
10154;SDS011;5118;48.570;7.916;2023-02-03T04:46:48;4.10;;;2.17;;
10154;SDS011;5118;48.570;7.916;2023-02-03T04:49:16;4.73;;;2.37;;
10154;SDS011;5118;48.570;7.916;2023-02-03T04:51:44;3.50;;;2.00;;
10154;SDS011;5118;48.570;7.916;2023-02-03T04:54:16;3.17;;;2.27;;
10154;SDS011;5118;48.570;7.916;2023-02-03T04:56:44;2.77;;;2.37;;
10154;SDS011;5118;48.570;7.916;2023-02-03T04:59:13;5.83;;;2.40;;
10154;SDS011;5118;48.570;7.916;2023-02-03T05:01:41;3.60;;;2.30;;
10154;SDS011;5118;48.570;7.916;2023-02-03T05:04:09;3.67;;;2.37;;
10154;SDS011;5118;48.570;7.916;2023-02-03T05:06:37;3.17;;;2.10;;
10154;SDS011;5118;48.570;7.916;2023-02-03T05:09:06;4.70;;;2.60;;
10154;SDS011;5118;48.570;7.916;2023-02-03T05:11:35;4.50;;;2.20;;
10154;SDS011;5118;48.570;7.916;2023-02-03T05:14:04;4.00;;;2.40;;
10154;SDS011;5118;48.570;7.916;2023-02-03T05:16:32;5.27;;;2.53;;
10154;SDS011;5118;48.570;7.916;2023-02-03T05:19:00;3.63;;;2.47;;
10154;SDS011;5118;48.570;7.916;2023-02-03T05:21:28;5.00;;;2.30;;
10154;SDS011;5118;48.570;7.916;2023-02-03T05:23:57;4.53;;;2.30;;
10154;SDS011;5118;48.570;7.916;2023-02-03T05:26:25;4.80;;;2.60;;
10154;SDS011;5118;48.570;7.916;2023-02-03T05:28:55;6.90;;;2.60;;
10154;SDS011;5118;48.570;7.916;2023-02-03T05:31:24;4.97;;;2.33;;
10154;SDS011;5118;48.570;7.916;2023-02-03T05:33:53;3.23;;;2.30;;
10154;SDS011;5118;48.570;7.916;2023-02-03T05:36:21;4.93;;;2.43;;
10154;SDS011;5118;48.570;7.916;2023-02-03T05:38:49;4.03;;;2.60;;
10154;SDS011;5118;48.570;7.916;2023-02-03T05:41:17;3.03;;;2.37;;
10154;SDS011;5118;48.570;7.916;2023-02-03T05:44:04;5.00;;;2.60;;
10154;SDS011;5118;48.570;7.916;2023-02-03T05:46:33;3.77;;;2.43;;
10154;SDS011;5118;48.570;7.916;2023-02-03T05:49:01;3.23;;;2.50;;
10154;SDS011;5118;48.570;7.916;2023-02-03T05:51:29;6.43;;;2.40;;
10154;SDS011;5118;48.570;7.916;2023-02-03T05:53:57;3.87;;;2.43;;
10154;SDS011;5118;48.570;7.916;2023-02-03T05:56:26;4.63;;;2.33;;
10154;SDS011;5118;48.570;7.916;2023-02-03T05:58:54;4.97;;;2.80;;
10154;SDS011;5118;48.570;7.916;2023-02-03T06:01:24;5.30;;;2.87;;
10154;SDS011;5118;48.570;7.916;2023-02-03T06:03:52;4.07;;;2.50;;
10154;SDS011;5118;48.570;7.916;2023-02-03T06:06:20;6.50;;;3.17;;
10154;SDS011;5118;48.570;7.916;2023-02-03T06:08:48;6.67;;;3.30;;
10154;SDS011;5118;48.570;7.916;2023-02-03T06:11:21;6.20;;;3.40;;
10154;SDS011;5118;48.570;7.916;2023-02-03T06:13:50;5.90;;;4.30;;
10154;SDS011;5118;48.570;7.916;2023-02-03T06:16:19;7.60;;;2.90;;
10154;SDS011;5118;48.570;7.916;2023-02-03T06:18:49;5.23;;;3.23;;
10154;SDS011;5118;48.570;7.916;2023-02-03T06:21:18;6.30;;;3.40;;
10154;SDS011;5118;48.570;7.916;2023-02-03T06:23:47;4.10;;;3.27;;
10154;SDS011;5118;48.570;7.916;2023-02-03T06:26:15;4.97;;;3.17;;
10154;SDS011;5118;48.570;7.916;2023-02-03T06:28:43;5.93;;;3.20;;
10154;SDS011;5118;48.570;7.916;2023-02-03T06:31:12;5.90;;;3.70;;
10154;SDS011;5118;48.570;7.916;2023-02-03T06:33:40;6.00;;;4.00;;
10154;SDS011;5118;48.570;7.916;2023-02-03T06:36:10;7.40;;;3.83;;
10154;SDS011;5118;48.570;7.916;2023-02-03T06:38:39;6.00;;;3.70;;
10154;SDS011;5118;48.570;7.916;2023-02-03T06:41:07;11.70;;;4.17;;
10154;SDS011;5118;48.570;7.916;2023-02-03T06:43:35;5.50;;;3.83;;
10154;SDS011;5118;48.570;7.916;2023-02-03T06:46:03;5.57;;;4.20;;
10154;SDS011;5118;48.570;7.916;2023-02-03T06:48:32;6.03;;;3.30;;
10154;SDS011;5118;48.570;7.916;2023-02-03T06:51:00;4.80;;;3.40;;
10154;SDS011;5118;48.570;7.916;2023-02-03T06:53:29;7.87;;;3.70;;
10154;SDS011;5118;48.570;7.916;2023-02-03T06:55:58;5.43;;;3.53;;
10154;SDS011;5118;48.570;7.916;2023-02-03T06:58:27;7.27;;;3.97;;
10154;SDS011;5118;48.570;7.916;2023-02-03T07:00:55;5.77;;;3.67;;
10154;SDS011;5118;48.570;7.916;2023-02-03T07:03:24;4.00;;;3.23;;
10154;SDS011;5118;48.570;7.916;2023-02-03T07:05:52;8.57;;;4.00;;
10154;SDS011;5118;48.570;7.916;2023-02-03T07:08:20;8.57;;;4.10;;
10154;SDS011;5118;48.570;7.916;2023-02-03T07:10:53;7.57;;;3.67;;
10154;SDS011;5118;48.570;7.916;2023-02-03T07:13:21;7.40;;;4.17;;
10154;SDS011;5118;48.570;7.916;2023-02-03T07:15:50;6.40;;;4.00;;
10154;SDS011;5118;48.570;7.916;2023-02-03T07:18:18;8.17;;;3.93;;
10154;SDS011;5118;48.570;7.916;2023-02-03T07:21:09;6.77;;;4.00;;
10154;SDS011;5118;48.570;7.916;2023-02-03T07:23:38;5.97;;;3.87;;
10154;SDS011;5118;48.570;7.916;2023-02-03T07:26:09;6.43;;;3.80;;
10154;SDS011;5118;48.570;7.916;2023-02-03T07:28:37;7.03;;;3.70;;
10154;SDS011;5118;48.570;7.916;2023-02-03T07:31:05;7.23;;;3.80;;
10154;SDS011;5118;48.570;7.916;2023-02-03T07:33:36;7.03;;;3.93;;
10154;SDS011;5118;48.570;7.916;2023-02-03T07:36:05;6.77;;;3.70;;
10154;SDS011;5118;48.570;7.916;2023-02-03T07:38:34;6.10;;;3.90;;
10154;SDS011;5118;48.570;7.916;2023-02-03T07:41:03;8.23;;;3.53;;
10154;SDS011;5118;48.570;7.916;2023-02-03T07:43:33;8.53;;;3.90;;
10154;SDS011;5118;48.570;7.916;2023-02-03T07:46:01;8.43;;;3.63;;
10154;SDS011;5118;48.570;7.916;2023-02-03T07:48:30;7.40;;;3.67;;
10154;SDS011;5118;48.570;7.916;2023-02-03T07:50:58;7.10;;;4.13;;
10154;SDS011;5118;48.570;7.916;2023-02-03T07:53:26;5.20;;;3.57;;
10154;SDS011;5118;48.570;7.916;2023-02-03T07:55:58;8.03;;;3.67;;
10154;SDS011;5118;48.570;7.916;2023-02-03T07:58:26;6.47;;;4.40;;
10154;SDS011;5118;48.570;7.916;2023-02-03T08:00:56;8.07;;;4.37;;
10154;SDS011;5118;48.570;7.916;2023-02-03T08:03:25;7.47;;;4.33;;
10154;SDS011;5118;48.570;7.916;2023-02-03T08:05:53;8.67;;;3.93;;
10154;SDS011;5118;48.570;7.916;2023-02-03T08:08:22;7.20;;;4.20;;
10154;SDS011;5118;48.570;7.916;2023-02-03T08:10:50;6.33;;;3.80;;
10154;SDS011;5118;48.570;7.916;2023-02-03T08:13:18;6.03;;;3.97;;
10154;SDS011;5118;48.570;7.916;2023-02-03T08:15:47;6.07;;;3.53;;
10154;SDS011;5118;48.570;7.916;2023-02-03T08:18:16;8.87;;;4.07;;
10154;SDS011;5118;48.570;7.916;2023-02-03T08:20:45;5.97;;;3.80;;
10154;SDS011;5118;48.570;7.916;2023-02-03T08:23:14;7.33;;;4.20;;
10154;SDS011;5118;48.570;7.916;2023-02-03T08:25:43;6.17;;;3.70;;
10154;SDS011;5118;48.570;7.916;2023-02-03T08:28:11;6.63;;;4.10;;
10154;SDS011;5118;48.570;7.916;2023-02-03T08:30:39;4.43;;;3.87;;
10154;SDS011;5118;48.570;7.916;2023-02-03T08:33:08;6.50;;;3.80;;
10154;SDS011;5118;48.570;7.916;2023-02-03T08:35:37;5.40;;;3.20;;
10154;SDS011;5118;48.570;7.916;2023-02-03T08:38:06;5.73;;;3.53;;
10154;SDS011;5118;48.570;7.916;2023-02-03T08:40:34;7.70;;;3.70;;
10154;SDS011;5118;48.570;7.916;2023-02-03T08:43:02;7.13;;;4.00;;
10154;SDS011;5118;48.570;7.916;2023-02-03T08:45:31;7.00;;;4.50;;
10154;SDS011;5118;48.570;7.916;2023-02-03T08:48:00;7.17;;;4.60;;
10154;SDS011;5118;48.570;7.916;2023-02-03T08:50:28;7.80;;;4.33;;
10154;SDS011;5118;48.570;7.916;2023-02-03T08:52:58;7.93;;;3.90;;
10154;SDS011;5118;48.570;7.916;2023-02-03T08:55:26;7.30;;;3.57;;
10154;SDS011;5118;48.570;7.916;2023-02-03T08:57:55;8.43;;;4.67;;
10154;SDS011;5118;48.570;7.916;2023-02-03T09:00:23;7.27;;;3.43;;
10154;SDS011;5118;48.570;7.916;2023-02-03T09:02:51;6.43;;;3.53;;
10154;SDS011;5118;48.570;7.916;2023-02-03T09:05:20;8.43;;;4.30;;
10154;SDS011;5118;48.570;7.916;2023-02-03T09:07:48;8.43;;;5.10;;
10154;SDS011;5118;48.570;7.916;2023-02-03T09:10:18;8.17;;;4.70;;
10154;SDS011;5118;48.570;7.916;2023-02-03T09:12:48;8.47;;;5.17;;
10154;SDS011;5118;48.570;7.916;2023-02-03T09:15:16;7.63;;;5.07;;
10154;SDS011;5118;48.570;7.916;2023-02-03T09:17:44;7.77;;;4.83;;
10154;SDS011;5118;48.570;7.916;2023-02-03T09:20:13;5.50;;;3.90;;
10154;SDS011;5118;48.570;7.916;2023-02-03T09:22:41;6.73;;;4.17;;
10154;SDS011;5118;48.570;7.916;2023-02-03T09:25:10;8.13;;;5.07;;
10154;SDS011;5118;48.570;7.916;2023-02-03T09:27:40;8.40;;;5.03;;
10154;SDS011;5118;48.570;7.916;2023-02-03T09:30:09;6.80;;;4.40;;
10154;SDS011;5118;48.570;7.916;2023-02-03T09:32:39;6.77;;;3.77;;
10154;SDS011;5118;48.570;7.916;2023-02-03T09:35:07;5.60;;;3.40;;
10154;SDS011;5118;48.570;7.916;2023-02-03T09:37:35;7.97;;;3.50;;
10154;SDS011;5118;48.570;7.916;2023-02-03T09:40:04;9.13;;;3.80;;
10154;SDS011;5118;48.570;7.916;2023-02-03T09:42:36;4.40;;;2.97;;
10154;SDS011;5118;48.570;7.916;2023-02-03T09:45:20;5.57;;;3.30;;
10154;SDS011;5118;48.570;7.916;2023-02-03T09:47:51;4.90;;;3.07;;
10154;SDS011;5118;48.570;7.916;2023-02-03T09:50:22;7.27;;;3.10;;
10154;SDS011;5118;48.570;7.916;2023-02-03T09:52:53;5.07;;;2.80;;
10154;SDS011;5118;48.570;7.916;2023-02-03T09:55:27;4.23;;;2.63;;
10154;SDS011;5118;48.570;7.916;2023-02-03T09:58:03;4.73;;;3.17;;
10154;SDS011;5118;48.570;7.916;2023-02-03T10:00:35;4.93;;;2.90;;
10154;SDS011;5118;48.570;7.916;2023-02-03T10:03:13;6.43;;;3.30;;
10154;SDS011;5118;48.570;7.916;2023-02-03T10:05:56;5.17;;;2.90;;
10154;SDS011;5118;48.570;7.916;2023-02-03T10:08:46;4.90;;;3.50;;
10154;SDS011;5118;48.570;7.916;2023-02-03T10:11:28;3.77;;;2.37;;
10154;SDS011;5118;48.570;7.916;2023-02-03T10:14:18;5.77;;;2.77;;
10154;SDS011;5118;48.570;7.916;2023-02-03T10:17:06;5.50;;;3.13;;
10154;SDS011;5118;48.570;7.916;2023-02-03T10:19:46;5.03;;;2.90;;
10154;SDS011;5118;48.570;7.916;2023-02-03T10:22:17;5.83;;;3.20;;
10154;SDS011;5118;48.570;7.916;2023-02-03T10:24:49;3.80;;;2.53;;
10154;SDS011;5118;48.570;7.916;2023-02-03T10:27:22;4.17;;;2.90;;
10154;SDS011;5118;48.570;7.916;2023-02-03T10:29:55;3.90;;;2.63;;
10154;SDS011;5118;48.570;7.916;2023-02-03T10:32:27;5.00;;;3.30;;
10154;SDS011;5118;48.570;7.916;2023-02-03T10:34:55;4.17;;;2.90;;
10154;SDS011;5118;48.570;7.916;2023-02-03T10:37:25;4.23;;;3.10;;
10154;SDS011;5118;48.570;7.916;2023-02-03T10:39:57;5.00;;;2.80;;
10154;SDS011;5118;48.570;7.916;2023-02-03T10:42:28;4.07;;;2.70;;
10154;SDS011;5118;48.570;7.916;2023-02-03T10:45:19;5.10;;;2.70;;
10154;SDS011;5118;48.570;7.916;2023-02-03T10:47:48;3.40;;;2.77;;
10154;SDS011;5118;48.570;7.916;2023-02-03T10:50:20;4.10;;;2.97;;
10154;SDS011;5118;48.570;7.916;2023-02-03T10:52:49;5.53;;;2.67;;
10154;SDS011;5118;48.570;7.916;2023-02-03T10:55:28;5.57;;;2.90;;
10154;SDS011;5118;48.570;7.916;2023-02-03T10:57:57;4.27;;;2.93;;
10154;SDS011;5118;48.570;7.916;2023-02-03T11:00:36;4.67;;;2.87;;
10154;SDS011;5118;48.570;7.916;2023-02-03T11:03:05;3.47;;;2.40;;
10154;SDS011;5118;48.570;7.916;2023-02-03T11:05:43;3.27;;;2.60;;
10154;SDS011;5118;48.570;7.916;2023-02-03T11:08:13;5.03;;;2.60;;
10154;SDS011;5118;48.570;7.916;2023-02-03T11:10:41;5.47;;;3.17;;
10154;SDS011;5118;48.570;7.916;2023-02-03T11:13:20;3.60;;;2.57;;
10154;SDS011;5118;48.570;7.916;2023-02-03T11:15:57;4.30;;;2.70;;
10154;SDS011;5118;48.570;7.916;2023-02-03T11:21:18;3.60;;;2.50;;
10154;SDS011;5118;48.570;7.916;2023-02-03T11:23:52;4.53;;;2.67;;
10154;SDS011;5118;48.570;7.916;2023-02-03T11:26:24;5.27;;;2.37;;
10154;SDS011;5118;48.570;7.916;2023-02-03T11:28:55;4.27;;;2.57;;
10154;SDS011;5118;48.570;7.916;2023-02-03T11:31:27;6.00;;;2.20;;
10154;SDS011;5118;48.570;7.916;2023-02-03T11:33:57;3.47;;;2.67;;
10154;SDS011;5118;48.570;7.916;2023-02-03T11:36:29;3.50;;;2.27;;
10154;SDS011;5118;48.570;7.916;2023-02-03T11:41:53;4.63;;;3.03;;
10154;SDS011;5118;48.570;7.916;2023-02-03T11:44:24;4.90;;;2.77;;
10154;SDS011;5118;48.570;7.916;2023-02-03T11:46:57;4.20;;;2.57;;
10154;SDS011;5118;48.570;7.916;2023-02-03T11:49:51;3.80;;;2.80;;
10154;SDS011;5118;48.570;7.916;2023-02-03T11:52:47;3.80;;;2.20;;
10154;SDS011;5118;48.570;7.916;2023-02-03T11:58:31;4.13;;;2.50;;
10154;SDS011;5118;48.570;7.916;2023-02-03T12:01:26;3.90;;;2.70;;
10154;SDS011;5118;48.570;7.916;2023-02-03T12:07:18;3.37;;;2.87;;
10154;SDS011;5118;48.570;7.916;2023-02-03T12:09:59;3.93;;;2.30;;
10154;SDS011;5118;48.570;7.916;2023-02-03T12:12:38;4.33;;;2.13;;
10154;SDS011;5118;48.570;7.916;2023-02-03T12:15:27;2.47;;;1.90;;
10154;SDS011;5118;48.570;7.916;2023-02-03T12:18:14;3.23;;;2.00;;
10154;SDS011;5118;48.570;7.916;2023-02-03T12:20:58;2.30;;;1.80;;
10154;SDS011;5118;48.570;7.916;2023-02-03T12:23:42;4.27;;;2.10;;
10154;SDS011;5118;48.570;7.916;2023-02-03T12:26:19;2.40;;;1.90;;
10154;SDS011;5118;48.570;7.916;2023-02-03T12:28:53;2.30;;;1.90;;
10154;SDS011;5118;48.570;7.916;2023-02-03T12:31:31;3.27;;;2.23;;
10154;SDS011;5118;48.570;7.916;2023-02-03T12:34:05;2.20;;;2.00;;
10154;SDS011;5118;48.570;7.916;2023-02-03T12:36:43;3.07;;;2.40;;
10154;SDS011;5118;48.570;7.916;2023-02-03T12:39:17;2.20;;;2.00;;
10154;SDS011;5118;48.570;7.916;2023-02-03T12:41:49;2.20;;;2.00;;
10154;SDS011;5118;48.570;7.916;2023-02-03T12:44:22;2.00;;;1.80;;
10154;SDS011;5118;48.570;7.916;2023-02-03T12:46:58;2.63;;;2.20;;
10154;SDS011;5118;48.570;7.916;2023-02-03T12:49:34;3.47;;;2.50;;
10154;SDS011;5118;48.570;7.916;2023-02-03T12:52:13;3.60;;;2.33;;
10154;SDS011;5118;48.570;7.916;2023-02-03T12:54:47;2.23;;;2.03;;
10154;SDS011;5118;48.570;7.916;2023-02-03T12:57:24;3.67;;;1.77;;
10154;SDS011;5118;48.570;7.916;2023-02-03T13:00:02;4.37;;;3.60;;
10154;SDS011;5118;48.570;7.916;2023-02-03T13:02:51;2.47;;;2.20;;
10154;SDS011;5118;48.570;7.916;2023-02-03T13:05:31;2.03;;;1.73;;
10154;SDS011;5118;48.570;7.916;2023-02-03T13:08:12;2.33;;;2.10;;
10154;SDS011;5118;48.570;7.916;2023-02-03T13:10:45;2.10;;;1.90;;
10154;SDS011;5118;48.570;7.916;2023-02-03T13:13:20;3.40;;;2.30;;
10154;SDS011;5118;48.570;7.916;2023-02-03T13:15:55;3.00;;;2.20;;
10154;SDS011;5118;48.570;7.916;2023-02-03T13:18:25;2.87;;;2.20;;
10154;SDS011;5118;48.570;7.916;2023-02-03T13:20:58;1.93;;;1.60;;
10154;SDS011;5118;48.570;7.916;2023-02-03T13:23:28;3.47;;;1.70;;
10154;SDS011;5118;48.570;7.916;2023-02-03T13:26:09;2.27;;;1.70;;
10154;SDS011;5118;48.570;7.916;2023-02-03T13:28:51;2.93;;;1.90;;
10154;SDS011;5118;48.570;7.916;2023-02-03T13:31:30;3.60;;;2.70;;
10154;SDS011;5118;48.570;7.916;2023-02-03T13:34:16;2.77;;;1.90;;
10154;SDS011;5118;48.570;7.916;2023-02-03T13:37:09;2.67;;;2.10;;
10154;SDS011;5118;48.570;7.916;2023-02-03T13:39:59;4.93;;;2.10;;
10154;SDS011;5118;48.570;7.916;2023-02-03T13:42:39;2.67;;;1.97;;
10154;SDS011;5118;48.570;7.916;2023-02-03T13:45:17;3.00;;;2.60;;
10154;SDS011;5118;48.570;7.916;2023-02-03T13:47:53;2.30;;;2.10;;
10154;SDS011;5118;48.570;7.916;2023-02-03T13:50:24;2.60;;;2.10;;
10154;SDS011;5118;48.570;7.916;2023-02-03T13:52:56;3.30;;;2.47;;
10154;SDS011;5118;48.570;7.916;2023-02-03T13:55:29;2.53;;;1.90;;
10154;SDS011;5118;48.570;7.916;2023-02-03T13:58:02;2.53;;;2.30;;
10154;SDS011;5118;48.570;7.916;2023-02-03T14:03:41;2.60;;;2.40;;
10154;SDS011;5118;48.570;7.916;2023-02-03T14:09:36;2.90;;;2.70;;
10154;SDS011;5118;48.570;7.916;2023-02-03T14:23:53;2.00;;;1.90;;
10154;SDS011;5118;48.570;7.916;2023-02-03T14:26:31;2.20;;;2.00;;
10154;SDS011;5118;48.570;7.916;2023-02-03T14:29:05;4.33;;;2.30;;
10154;SDS011;5118;48.570;7.916;2023-02-03T14:31:51;3.83;;;3.20;;
10154;SDS011;5118;48.570;7.916;2023-02-03T14:34:27;5.60;;;4.20;;
10154;SDS011;5118;48.570;7.916;2023-02-03T14:37:07;6.70;;;5.80;;
10154;SDS011;5118;48.570;7.916;2023-02-03T14:39:45;6.20;;;5.27;;
10154;SDS011;5118;48.570;7.916;2023-02-03T14:45:58;3.77;;;3.47;;
10154;SDS011;5118;48.570;7.916;2023-02-03T14:51:34;3.87;;;2.53;;
10154;SDS011;5118;48.570;7.916;2023-02-03T14:54:25;2.90;;;2.60;;
10154;SDS011;5118;48.570;7.916;2023-02-03T14:57:07;3.50;;;3.00;;
10154;SDS011;5118;48.570;7.916;2023-02-03T14:59:46;3.00;;;1.87;;
10154;SDS011;5118;48.570;7.916;2023-02-03T15:02:19;3.57;;;3.00;;
10154;SDS011;5118;48.570;7.916;2023-02-03T15:04:51;3.63;;;3.23;;
10154;SDS011;5118;48.570;7.916;2023-02-03T15:07:41;3.70;;;3.40;;
10154;SDS011;5118;48.570;7.916;2023-02-03T15:10:12;3.43;;;3.13;;
10154;SDS011;5118;48.570;7.916;2023-02-03T15:12:43;3.37;;;3.07;;
10154;SDS011;5118;48.570;7.916;2023-02-03T15:15:20;2.77;;;2.50;;
10154;SDS011;5118;48.570;7.916;2023-02-03T15:17:51;3.90;;;2.73;;
10154;SDS011;5118;48.570;7.916;2023-02-03T15:20:25;2.77;;;2.33;;
10154;SDS011;5118;48.570;7.916;2023-02-03T15:22:57;1.80;;;1.70;;
10154;SDS011;5118;48.570;7.916;2023-02-03T15:25:27;2.13;;;1.70;;
10154;SDS011;5118;48.570;7.916;2023-02-03T15:28:11;2.03;;;1.90;;
10154;SDS011;5118;48.570;7.916;2023-02-03T15:30:42;1.20;;;1.10;;
10154;SDS011;5118;48.570;7.916;2023-02-03T15:33:14;1.20;;;1.10;;
10154;SDS011;5118;48.570;7.916;2023-02-03T15:35:46;1.47;;;1.37;;
10154;SDS011;5118;48.570;7.916;2023-02-03T15:38:17;1.20;;;1.07;;
10154;SDS011;5118;48.570;7.916;2023-02-03T15:40:50;1.33;;;1.10;;
10154;SDS011;5118;48.570;7.916;2023-02-03T15:43:24;1.67;;;1.57;;
10154;SDS011;5118;48.570;7.916;2023-02-03T15:46:00;2.07;;;1.00;;
10154;SDS011;5118;48.570;7.916;2023-02-03T15:48:36;1.47;;;1.20;;
10154;SDS011;5118;48.570;7.916;2023-02-03T15:51:09;2.40;;;0.93;;
10154;SDS011;5118;48.570;7.916;2023-02-03T15:53:46;1.20;;;1.10;;
10154;SDS011;5118;48.570;7.916;2023-02-03T15:56:21;1.23;;;1.17;;
10154;SDS011;5118;48.570;7.916;2023-02-03T15:58:55;2.20;;;2.00;;
10154;SDS011;5118;48.570;7.916;2023-02-03T16:01:25;1.60;;;1.50;;
10154;SDS011;5118;48.570;7.916;2023-02-03T16:03:55;1.07;;;1.03;;
10154;SDS011;5118;48.570;7.916;2023-02-03T16:06:26;1.17;;;1.07;;
10154;SDS011;5118;48.570;7.916;2023-02-03T16:09:01;2.03;;;1.20;;
10154;SDS011;5118;48.570;7.916;2023-02-03T16:11:32;1.30;;;1.20;;
10154;SDS011;5118;48.570;7.916;2023-02-03T16:14:03;1.27;;;0.90;;
10154;SDS011;5118;48.570;7.916;2023-02-03T16:16:34;1.10;;;1.00;;